Time;durP1;ratioP1;P1;durP2;ratioP2;P2;SDS_P1;SDS_P2;PMS_P1;PMS_P2;Temp;Humidity;BMP_temperature;BMP_pressure;BME280_temperature;BME280_humidity;BME280_pressure;Samples;Min_cycle;Max_cycle;Signal;HPM_P1;HPM_P2
2023/06/14 00:01:41;;;;;;;3.28;2.00;;;21.60;63.20;;;;;;5078357;28;20107;-87
2023/06/14 00:04:08;;;;;;;3.10;1.80;;;21.60;63.50;;;;;;5077347;28;20040;-85
2023/06/14 00:06:34;;;;;;;3.55;1.80;;;21.50;63.60;;;;;;5078081;28;20042;-86
2023/06/14 00:09:00;;;;;;;3.67;2.00;;;21.50;63.60;;;;;;5075236;28;20024;-84
2023/06/14 00:11:26;;;;;;;3.58;1.90;;;21.50;63.70;;;;;;5074158;28;20149;-86
2023/06/14 00:13:52;;;;;;;3.40;1.90;;;21.50;63.70;;;;;;5076153;28;20020;-84
2023/06/14 00:16:19;;;;;;;2.67;1.88;;;21.50;63.90;;;;;;5076416;28;20052;-86
2023/06/14 00:18:45;;;;;;;2.60;1.63;;;21.40;63.90;;;;;;5076666;28;20155;-86
2023/06/14 00:21:12;;;;;;;4.53;1.80;;;21.40;64.00;;;;;;5077236;28;20124;-85
2023/06/14 00:23:37;;;;;;;3.33;2.08;;;21.40;64.10;;;;;;5075411;28;20047;-84
2023/06/14 00:26:03;;;;;;;4.40;1.85;;;21.40;64.20;;;;;;5075577;28;20040;-85
2023/06/14 00:28:29;;;;;;;2.90;1.60;;;21.40;64.20;;;;;;5075127;28;20048;-86
2023/06/14 00:30:55;;;;;;;3.30;1.80;;;21.30;64.40;;;;;;5075145;28;20374;-85
2023/06/14 00:33:21;;;;;;;3.58;1.50;;;21.30;64.40;;;;;;5076736;28;20073;-86
2023/06/14 00:35:47;;;;;;;3.80;1.60;;;21.20;64.50;;;;;;5064549;28;20047;-86
2023/06/14 00:38:12;;;;;;;2.92;1.70;;;21.20;64.50;;;;;;5076369;28;20020;-86
2023/06/14 00:40:38;;;;;;;3.13;1.63;;;21.20;64.70;;;;;;5075369;28;20035;-84
2023/06/14 00:43:04;;;;;;;2.83;1.55;;;21.10;64.80;;;;;;5067179;28;20498;-86
2023/06/14 00:45:31;;;;;;;3.33;1.67;;;21.10;65.00;;;;;;5075146;28;20035;-84
2023/06/14 00:47:57;;;;;;;3.22;1.75;;;21.10;65.00;;;;;;5075049;28;20028;-87
2023/06/14 00:50:23;;;;;;;2.75;1.80;;;21.00;65.00;;;;;;5061525;28;20056;-84
2023/06/14 00:52:49;;;;;;;2.65;1.63;;;21.00;65.20;;;;;;5074208;28;20053;-84
2023/06/14 00:55:15;;;;;;;2.80;1.77;;;21.00;65.20;;;;;;5075734;28;20489;-83
2023/06/14 00:57:41;;;;;;;3.67;1.60;;;20.90;65.20;;;;;;5074238;28;20029;-86
2023/06/14 01:00:09;;;;;;;4.10;1.80;;;20.90;65.30;;;;;;5076791;28;20564;-84
2023/06/14 01:02:38;;;;;;;2.80;1.70;;;20.90;65.40;;;;;;5075738;28;20474;-87
2023/06/14 01:05:06;;;;;;;3.05;1.77;;;20.80;65.50;;;;;;5077508;28;20043;-85
2023/06/14 01:07:43;;;;;;;3.08;1.95;;;20.80;65.50;;;;;;5074225;28;20048;-85
2023/06/14 01:10:44;;;;;;;4.95;1.75;;;20.70;65.60;;;;;;5075360;28;20035;-85
2023/06/14 01:13:20;;;;;;;3.28;1.50;;;20.70;65.60;;;;;;5059118;28;20127;-86
2023/06/14 01:15:46;;;;;;;3.30;1.70;;;20.70;65.90;;;;;;5075980;28;21128;-82
2023/06/14 01:18:18;;;;;;;3.75;1.95;;;20.60;65.80;;;;;;5076094;28;20144;-85
2023/06/14 01:20:49;;;;;;;5.53;1.60;;;20.70;65.90;;;;;;5075844;28;20024;-86
2023/06/14 01:23:18;;;;;;;3.28;1.67;;;20.60;65.80;;;;;;5076387;28;20040;-85
2023/06/14 01:25:44;;;;;;;2.97;1.77;;;20.50;66.00;;;;;;5060821;28;20944;-87
2023/06/14 01:28:11;;;;;;;3.58;1.77;;;20.50;66.00;;;;;;5073591;28;20029;-85
2023/06/14 01:30:38;;;;;;;2.15;1.60;;;20.50;66.20;;;;;;5076817;28;20408;-86
2023/06/14 01:33:05;;;;;;;2.85;1.70;;;20.50;66.20;;;;;;5075444;28;20159;-86
2023/06/14 01:35:31;;;;;;;3.20;1.52;;;20.40;66.30;;;;;;5075442;28;20030;-88
2023/06/14 01:37:57;;;;;;;2.72;1.65;;;20.40;66.40;;;;;;5073608;28;20028;-87
2023/06/14 01:40:24;;;;;;;2.75;1.42;;;20.40;66.50;;;;;;5063992;28;20020;-86
2023/06/14 01:42:51;;;;;;;3.95;1.65;;;20.40;66.70;;;;;;5076637;28;20020;-85
2023/06/14 01:45:18;;;;;;;5.15;1.60;;;20.40;66.60;;;;;;5074673;28;20040;-87
2023/06/14 01:47:45;;;;;;;2.35;1.50;;;20.40;66.60;;;;;;5064931;28;20043;-86
2023/06/14 01:50:11;;;;;;;3.90;1.63;;;20.40;66.60;;;;;;5078039;28;20032;-84
2023/06/14 01:52:39;;;;;;;3.42;1.80;;;20.30;66.90;;;;;;5075328;28;20390;-85
2023/06/14 01:55:06;;;;;;;3.03;1.67;;;20.30;67.10;;;;;;5075912;28;20024;-86
2023/06/14 01:57:31;;;;;;;3.10;1.42;;;20.20;66.90;;;;;;5075841;28;20066;-86
2023/06/14 01:59:57;;;;;;;3.13;1.70;;;20.10;67.10;;;;;;5074469;28;20036;-84
2023/06/14 02:02:23;;;;;;;2.92;1.60;;;20.20;67.20;;;;;;5075688;28;20485;-85
2023/06/14 02:04:48;;;;;;;5.78;1.75;;;20.10;67.20;;;;;;5074739;28;20047;-84
2023/06/14 02:07:14;;;;;;;2.05;1.33;;;20.10;67.30;;;;;;5074287;28;21938;-85
2023/06/14 02:09:41;;;;;;;4.00;1.60;;;20.00;67.50;;;;;;5073875;28;20029;-87
2023/06/14 02:12:07;;;;;;;2.17;1.25;;;19.90;67.60;;;;;;5073631;28;20491;-85
2023/06/14 02:14:33;;;;;;;4.00;2.00;;;19.90;67.80;;;;;;5073713;28;20055;-85
2023/06/14 02:17:00;;;;;;;2.92;1.65;;;19.90;67.80;;;;;;5075598;28;20017;-85
2023/06/14 02:19:26;;;;;;;2.65;1.60;;;19.80;67.90;;;;;;5073762;28;20118;-84
2023/06/14 02:21:52;;;;;;;3.35;1.50;;;19.70;67.90;;;;;;5074252;28;20024;-83
2023/06/14 02:24:18;;;;;;;3.38;1.42;;;19.70;68.00;;;;;;5074800;28;20452;-85
2023/06/14 02:26:43;;;;;;;5.57;2.10;;;19.70;68.10;;;;;;5074643;28;20036;-87
2023/06/14 02:29:10;;;;;;;4.47;1.60;;;19.70;68.30;;;;;;5074557;28;20078;-88
2023/06/14 02:31:36;;;;;;;2.38;1.50;;;19.70;68.30;;;;;;5074457;28;20039;-85
2023/06/14 02:34:02;;;;;;;3.42;1.70;;;19.70;68.40;;;;;;5075296;28;20020;-86
2023/06/14 02:36:30;;;;;;;4.43;1.63;;;19.60;68.40;;;;;;5074250;28;20024;-85
2023/06/14 02:38:57;;;;;;;3.60;1.20;;;19.50;68.50;;;;;;5074121;28;20024;-86
2023/06/14 02:41:23;;;;;;;1.88;1.40;;;19.60;68.60;;;;;;5075603;28;20024;-83
2023/06/14 02:43:49;;;;;;;3.47;1.80;;;19.50;68.60;;;;;;5075734;28;20031;-86
2023/06/14 02:46:14;;;;;;;2.47;1.45;;;19.50;69.30;;;;;;5075446;28;20036;-85
2023/06/14 02:48:40;;;;;;;3.67;1.58;;;19.40;68.80;;;;;;5075491;28;20099;-88
2023/06/14 02:51:06;;;;;;;3.58;1.40;;;19.40;69.00;;;;;;5077428;28;20115;-85
2023/06/14 02:53:31;;;;;;;3.78;1.50;;;19.40;69.00;;;;;;5078510;28;20419;-86
2023/06/14 02:55:57;;;;;;;3.03;1.60;;;19.40;69.00;;;;;;5078305;28;20056;-88
2023/06/14 02:58:24;;;;;;;2.65;1.38;;;19.40;69.10;;;;;;5079361;28;20120;-86
2023/06/14 03:00:52;;;;;;;2.30;1.45;;;19.30;69.20;;;;;;5079427;28;20031;-86
2023/06/14 03:03:18;;;;;;;3.38;1.60;;;19.30;69.20;;;;;;5079209;28;20550;-87
2023/06/14 03:05:49;;;;;;;1.95;1.30;;;19.30;69.30;;;;;;5080309;28;20532;-88
2023/06/14 03:08:16;;;;;;;3.05;1.52;;;19.30;69.40;;;;;;5068866;28;20020;-88
2023/06/14 03:10:48;;;;;;;2.22;1.25;;;19.30;69.30;;;;;;5080608;28;20133;-88
2023/06/14 03:13:15;;;;;;;3.63;1.42;;;19.40;69.30;;;;;;5078980;28;20028;-88
2023/06/14 03:15:42;;;;;;;3.30;1.60;;;19.30;69.30;;;;;;5069695;28;20020;-87
2023/06/14 03:18:09;;;;;;;2.95;1.60;;;19.30;69.50;;;;;;5078733;28;20043;-87
2023/06/14 03:20:35;;;;;;;2.55;1.50;;;19.20;69.70;;;;;;5077133;28;20024;-87
2023/06/14 03:23:02;;;;;;;2.45;1.50;;;19.10;69.80;;;;;;5078833;28;20189;-86
2023/06/14 03:25:29;;;;;;;2.95;1.30;;;19.10;69.90;;;;;;5079565;28;20040;-87
2023/06/14 03:27:55;;;;;;;3.17;1.25;;;19.10;69.80;;;;;;5079950;28;20111;-88
2023/06/14 03:30:21;;;;;;;5.65;1.67;;;19.10;69.80;;;;;;5078646;28;20080;-87
2023/06/14 03:32:47;;;;;;;2.85;1.30;;;19.10;69.80;;;;;;5079573;28;20072;-86
2023/06/14 03:35:16;;;;;;;2.60;1.30;;;19.10;70.00;;;;;;5076102;28;20024;-86
2023/06/14 03:37:46;;;;;;;1.60;0.93;;;19.00;70.10;;;;;;5079742;28;20158;-87
2023/06/14 03:40:13;;;;;;;1.92;1.20;;;19.10;70.10;;;;;;5078569;28;20033;-89
2023/06/14 03:42:39;;;;;;;2.58;1.40;;;19.10;70.00;;;;;;5076086;28;20028;-86
2023/06/14 03:45:06;;;;;;;2.70;1.45;;;19.20;69.90;;;;;;5078788;28;20056;-87
2023/06/14 03:47:31;;;;;;;2.08;1.40;;;19.10;70.10;;;;;;5079089;28;20115;-85
2023/06/14 03:49:57;;;;;;;2.22;1.23;;;19.00;70.10;;;;;;5062613;28;20703;-87
2023/06/14 03:52:23;;;;;;;2.40;1.30;;;19.00;70.20;;;;;;5080627;28;20102;-89
2023/06/14 03:54:49;;;;;;;3.80;1.58;;;19.00;70.30;;;;;;5078594;28;20069;-87
2023/06/14 03:57:15;;;;;;;3.00;1.27;;;19.10;70.30;;;;;;5077840;28;20063;-87
2023/06/14 03:59:41;;;;;;;3.15;1.45;;;19.00;70.40;;;;;;5077128;28;20024;-86
2023/06/14 04:02:07;;;;;;;2.75;1.33;;;19.00;70.40;;;;;;5075908;28;20090;-84
2023/06/14 04:04:32;;;;;;;1.80;1.30;;;18.90;70.60;;;;;;5075797;28;22033;-86
2023/06/14 04:07:00;;;;;;;2.10;1.27;;;18.90;70.70;;;;;;5066743;28;20043;-85
2023/06/14 04:09:26;;;;;;;3.22;1.23;;;18.90;70.80;;;;;;5075889;28;20024;-86
2023/06/14 04:11:55;;;;;;;2.22;1.30;;;18.90;70.60;;;;;;5078136;28;20622;-86
2023/06/14 04:14:21;;;;;;;3.55;1.35;;;18.90;70.70;;;;;;5077942;28;20085;-86
2023/06/14 04:16:48;;;;;;;4.30;1.38;;;18.90;70.90;;;;;;5074502;28;20070;-87
2023/06/14 04:19:14;;;;;;;2.13;1.40;;;18.90;71.60;;;;;;5077454;28;20647;-85
2023/06/14 04:21:39;;;;;;;2.95;1.23;;;18.80;71.00;;;;;;5076125;28;20067;-86
2023/06/14 04:24:06;;;;;;;2.65;1.27;;;18.90;71.10;;;;;;5076726;28;20076;-87
2023/06/14 04:26:33;;;;;;;2.63;1.20;;;18.90;71.10;;;;;;5076853;28;20076;-86
2023/06/14 04:29:02;;;;;;;1.95;1.27;;;18.90;71.10;;;;;;5068976;28;20043;-85
2023/06/14 04:31:29;;;;;;;2.25;1.30;;;18.90;71.80;;;;;;5064093;28;20021;-86
2023/06/14 04:33:55;;;;;;;3.88;1.20;;;18.90;71.30;;;;;;5059351;28;20493;-87
2023/06/14 04:36:22;;;;;;;2.50;1.30;;;18.90;71.30;;;;;;5077533;28;20390;-87
2023/06/14 04:38:48;;;;;;;3.22;1.40;;;18.90;71.80;;;;;;5077775;28;20024;-89
2023/06/14 04:41:15;;;;;;;3.97;1.10;;;19.00;71.20;;;;;;5077917;28;20557;-87
2023/06/14 04:43:42;;;;;;;1.73;1.13;;;19.00;71.20;;;;;;5078028;28;20595;-87
2023/06/14 04:46:10;;;;;;;2.03;1.10;;;19.00;71.30;;;;;;5061893;28;20334;-87
2023/06/14 04:48:37;;;;;;;2.20;1.42;;;19.00;71.40;;;;;;5060982;28;20039;-87
2023/06/14 04:51:03;;;;;;;2.13;1.10;;;19.00;71.50;;;;;;5076869;28;20024;-87
2023/06/14 04:53:29;;;;;;;2.75;1.25;;;18.90;71.50;;;;;;5078550;28;20032;-86
2023/06/14 04:55:55;;;;;;;2.45;1.27;;;18.90;71.70;;;;;;5076107;28;20054;-85
2023/06/14 04:58:20;;;;;;;3.40;1.50;;;18.90;71.70;;;;;;5063155;28;20020;-84
2023/06/14 05:00:46;;;;;;;1.98;1.25;;;18.90;71.80;;;;;;5075501;28;20340;-85
2023/06/14 05:03:12;;;;;;;2.35;1.13;;;18.90;71.80;;;;;;5064524;28;20037;-87
2023/06/14 05:05:40;;;;;;;1.65;1.17;;;19.00;71.90;;;;;;5077222;28;20111;-87
2023/06/14 05:08:05;;;;;;;3.00;1.35;;;18.90;72.00;;;;;;5075343;28;20031;-87
2023/06/14 05:10:31;;;;;;;2.00;1.27;;;19.00;72.00;;;;;;5076747;28;20385;-88
2023/06/14 05:12:56;;;;;;;2.55;1.42;;;19.00;72.10;;;;;;5076850;28;20028;-86
2023/06/14 05:15:25;;;;;;;2.53;1.30;;;19.00;72.10;;;;;;5058237;28;20043;-89
2023/06/14 05:17:54;;;;;;;3.63;1.55;;;19.00;72.20;;;;;;5063140;28;20028;-88
2023/06/14 05:20:22;;;;;;;2.05;1.20;;;19.00;72.10;;;;;;5061554;28;20074;-87
2023/06/14 05:22:51;;;;;;;2.03;1.15;;;19.00;72.20;;;;;;5076878;28;20042;-87
2023/06/14 05:25:17;;;;;;;2.08;1.40;;;19.00;72.20;;;;;;5057244;28;20127;-87
2023/06/14 05:27:43;;;;;;;1.95;1.30;;;19.00;72.20;;;;;;5065127;28;20038;-85
2023/06/14 05:30:09;;;;;;;3.45;1.30;;;19.10;72.40;;;;;;5076393;28;20355;-86
2023/06/14 05:32:35;;;;;;;4.18;1.50;;;19.10;72.40;;;;;;5078244;28;20032;-90
2023/06/14 05:35:00;;;;;;;3.30;1.60;;;19.10;72.40;;;;;;5063051;28;20028;-88
2023/06/14 05:37:26;;;;;;;1.52;1.20;;;19.10;72.40;;;;;;5059508;28;20984;-89
2023/06/14 05:39:51;;;;;;;3.70;1.80;;;19.20;72.40;;;;;;5072235;28;20076;-88
2023/06/14 05:42:17;;;;;;;3.30;1.60;;;19.20;72.40;;;;;;5074520;28;20035;-89
2023/06/14 05:44:43;;;;;;;2.30;1.67;;;19.30;72.40;;;;;;5072569;28;20024;-87
2023/06/14 05:47:08;;;;;;;2.28;1.42;;;19.30;72.40;;;;;;5062230;28;20043;-88
2023/06/14 05:49:34;;;;;;;2.28;1.30;;;19.30;72.40;;;;;;5057194;28;20213;-86
2023/06/14 05:51:59;;;;;;;3.13;1.52;;;19.30;72.40;;;;;;5063128;28;20020;-88
2023/06/14 05:54:25;;;;;;;2.67;1.40;;;19.30;72.50;;;;;;5061379;28;20024;-87
2023/06/14 05:56:51;;;;;;;3.30;1.40;;;19.40;72.60;;;;;;5070295;28;20028;-85
2023/06/14 05:59:16;;;;;;;2.95;1.50;;;19.40;72.50;;;;;;5054742;28;20036;-84
2023/06/14 06:01:42;;;;;;;1.80;1.23;;;19.50;72.60;;;;;;5070263;28;20032;-84
2023/06/14 06:04:07;;;;;;;2.90;1.48;;;19.50;72.50;;;;;;5071020;28;20035;-84
2023/06/14 06:06:33;;;;;;;4.50;1.50;;;19.50;72.60;;;;;;5069395;28;20031;-84
2023/06/14 06:09:00;;;;;;;4.18;1.60;;;19.50;72.70;;;;;;5050534;28;20572;-85
2023/06/14 06:11:25;;;;;;;2.05;1.38;;;19.50;72.70;;;;;;5068121;28;20089;-85
2023/06/14 06:13:51;;;;;;;2.05;1.30;;;19.50;72.70;;;;;;5059629;28;20017;-84
2023/06/14 06:16:16;;;;;;;2.70;1.27;;;19.60;72.70;;;;;;5054629;28;20032;-85
2023/06/14 06:18:42;;;;;;;2.35;1.35;;;19.70;72.60;;;;;;5051968;28;20024;-85
2023/06/14 06:21:08;;;;;;;2.30;1.20;;;19.80;72.70;;;;;;5068562;28;20040;-85
2023/06/14 06:23:33;;;;;;;3.03;1.48;;;19.80;72.60;;;;;;5070151;28;20044;-87
2023/06/14 06:25:59;;;;;;;3.00;1.27;;;19.80;72.60;;;;;;5055327;28;20081;-84
2023/06/14 06:28:24;;;;;;;3.22;1.60;;;19.90;72.70;;;;;;5071223;28;20039;-85
2023/06/14 06:30:50;;;;;;;2.75;1.60;;;19.90;72.60;;;;;;5060979;28;20035;-85
2023/06/14 06:33:18;;;;;;;2.95;1.50;;;19.90;72.60;;;;;;5061032;28;20039;-85
2023/06/14 06:35:44;;;;;;;3.17;1.20;;;20.00;72.70;;;;;;5060507;28;20160;-86
2023/06/14 06:38:09;;;;;;;2.22;1.38;;;20.10;72.70;;;;;;5061115;28;20032;-84
2023/06/14 06:40:36;;;;;;;4.35;1.70;;;20.10;72.70;;;;;;5058660;28;20117;-84
2023/06/14 06:43:03;;;;;;;2.90;1.60;;;20.10;72.80;;;;;;5054461;28;20020;-84
2023/06/14 06:45:28;;;;;;;2.83;1.50;;;20.10;72.80;;;;;;5054959;28;20068;-83
2023/06/14 06:47:55;;;;;;;2.78;1.30;;;20.10;72.70;;;;;;5060128;28;20574;-83
2023/06/14 06:50:23;;;;;;;2.40;1.50;;;20.20;72.80;;;;;;5071926;28;20112;-84
2023/06/14 06:52:48;;;;;;;2.40;1.40;;;20.30;72.70;;;;;;5070270;28;20493;-81
2023/06/14 06:55:14;;;;;;;2.42;1.13;;;20.30;72.60;;;;;;5058281;28;20024;-82
2023/06/14 06:57:40;;;;;;;5.07;1.40;;;20.30;72.50;;;;;;5056031;28;20032;-82
2023/06/14 07:00:10;;;;;;;2.50;1.45;;;20.30;72.40;;;;;;5069421;28;20032;-82
2023/06/14 07:02:36;;;;;;;3.10;1.70;;;20.40;72.50;;;;;;5060829;28;20024;-81
2023/06/14 07:05:02;;;;;;;2.30;1.30;;;20.40;72.30;;;;;;5060594;28;20064;-82
2023/06/14 07:07:28;;;;;;;4.35;1.70;;;20.50;72.30;;;;;;5069943;28;20078;-82
2023/06/14 07:09:53;;;;;;;3.67;1.50;;;20.50;72.30;;;;;;5056943;28;20012;-83
2023/06/14 07:12:19;;;;;;;1.67;1.20;;;20.50;72.20;;;;;;5070674;28;20860;-82
2023/06/14 07:14:45;;;;;;;5.20;1.60;;;20.50;72.20;;;;;;5070959;28;20493;-82
2023/06/14 07:17:11;;;;;;;1.75;1.30;;;20.50;72.20;;;;;;5070325;28;20025;-82
2023/06/14 07:19:36;;;;;;;4.00;1.55;;;20.60;72.40;;;;;;5069605;28;20032;-84
2023/06/14 07:22:04;;;;;;;2.72;1.35;;;20.60;72.20;;;;;;5060273;28;20045;-83
2023/06/14 07:24:30;;;;;;;2.92;1.75;;;20.70;72.20;;;;;;5071724;28;20036;-81
2023/06/14 07:26:56;;;;;;;1.60;1.10;;;20.70;72.10;;;;;;5057985;28;20048;-82
2023/06/14 07:29:21;;;;;;;4.43;1.80;;;20.70;72.00;;;;;;5072371;28;20032;-83
2023/06/14 07:31:48;;;;;;;2.75;1.40;;;20.80;72.10;;;;;;5053108;28;20025;-82
2023/06/14 07:34:13;;;;;;;2.05;1.27;;;20.80;72.10;;;;;;5070515;28;20028;-82
2023/06/14 07:36:39;;;;;;;3.22;1.20;;;20.80;71.90;;;;;;5058436;28;20039;-81
2023/06/14 07:39:06;;;;;;;3.03;1.30;;;20.90;71.80;;;;;;5074332;28;20020;-82
2023/06/14 07:41:32;;;;;;;2.28;1.15;;;20.90;71.70;;;;;;5061088;28;20096;-83
2023/06/14 07:43:58;;;;;;;1.92;0.90;;;21.00;71.70;;;;;;5074346;28;20031;-82
2023/06/14 07:46:23;;;;;;;2.40;1.27;;;21.00;71.60;;;;;;5074935;28;20032;-85
2023/06/14 07:48:49;;;;;;;2.38;1.40;;;21.10;71.50;;;;;;5075411;28;20207;-83
2023/06/14 07:51:15;;;;;;;1.77;1.00;;;21.10;71.30;;;;;;5073730;28;20158;-85
2023/06/14 07:53:41;;;;;;;1.63;1.10;;;21.10;71.20;;;;;;5075046;28;20077;-84
2023/06/14 07:56:07;;;;;;;1.85;1.10;;;21.20;71.20;;;;;;5059294;28;20093;-82
2023/06/14 07:58:33;;;;;;;2.88;1.02;;;21.30;71.10;;;;;;5058793;28;20412;-82
2023/06/14 08:00:59;;;;;;;1.55;0.90;;;21.30;70.80;;;;;;5074505;28;20028;-82
2023/06/14 08:03:24;;;;;;;1.33;0.93;;;21.40;70.70;;;;;;5073655;28;20469;-82
2023/06/14 08:05:50;;;;;;;1.98;1.00;;;21.50;70.80;;;;;;5073404;28;20043;-82
2023/06/14 08:08:16;;;;;;;3.17;1.10;;;21.50;70.50;;;;;;5074948;28;20032;-82
2023/06/14 08:10:42;;;;;;;2.33;1.17;;;21.50;70.50;;;;;;5059345;28;20169;-83
2023/06/14 08:13:09;;;;;;;1.83;1.00;;;21.60;70.30;;;;;;5074086;28;20495;-82
2023/06/14 08:15:34;;;;;;;1.27;0.90;;;21.70;69.90;;;;;;5066602;28;20031;-83
2023/06/14 08:18:01;;;;;;;1.52;0.80;;;21.80;69.80;;;;;;5072805;28;20021;-82
2023/06/14 08:20:26;;;;;;;1.23;0.70;;;21.90;69.60;;;;;;5075529;28;20040;-83
2023/06/14 08:22:55;;;;;;;1.98;0.85;;;21.90;69.30;;;;;;5057038;28;20927;-84
2023/06/14 08:25:20;;;;;;;2.22;0.80;;;21.90;69.20;;;;;;5072598;28;20024;-81
2023/06/14 08:27:46;;;;;;;1.77;0.80;;;22.00;69.20;;;;;;5058524;28;20039;-84
2023/06/14 08:30:12;;;;;;;1.63;1.08;;;22.10;69.00;;;;;;5058102;28;20028;-86
2023/06/14 08:32:38;;;;;;;1.10;0.80;;;22.10;68.60;;;;;;5056486;28;20036;-86
2023/06/14 08:35:05;;;;;;;0.95;0.65;;;22.20;68.50;;;;;;5066474;28;20073;-86
2023/06/14 08:37:31;;;;;;;1.42;0.80;;;22.30;68.50;;;;;;5075677;28;20381;-86
2023/06/14 08:39:56;;;;;;;1.30;0.80;;;22.30;68.50;;;;;;5072944;28;20029;-85
2023/06/14 08:42:24;;;;;;;1.73;0.90;;;22.40;68.40;;;;;;5074872;28;20313;-83
2023/06/14 08:44:50;;;;;;;1.40;0.90;;;22.40;68.20;;;;;;5072858;28;20019;-82
2023/06/14 08:47:17;;;;;;;3.67;1.08;;;22.40;68.20;;;;;;5073742;28;20906;-85
2023/06/14 08:49:47;;;;;;;1.75;0.95;;;22.50;68.10;;;;;;5073637;28;20032;-82
2023/06/14 08:52:18;;;;;;;2.85;1.00;;;22.60;67.70;;;;;;5073996;28;20027;-82
2023/06/14 08:54:45;;;;;;;2.47;1.08;;;22.60;67.40;;;;;;5065964;28;20799;-81
2023/06/14 08:57:16;;;;;;;1.70;1.05;;;22.60;67.10;;;;;;5057689;28;20047;-82
2023/06/14 08:59:48;;;;;;;2.08;1.00;;;22.70;67.10;;;;;;5057913;28;20055;-80
2023/06/14 09:02:17;;;;;;;1.25;0.80;;;22.80;67.00;;;;;;5075008;28;20020;-84
2023/06/14 09:04:44;;;;;;;0.90;0.70;;;22.80;66.90;;;;;;5062934;28;20024;-83
2023/06/14 09:07:10;;;;;;;2.42;1.02;;;22.90;67.00;;;;;;5074222;28;20277;-85
2023/06/14 09:09:40;;;;;;;2.13;0.90;;;23.00;66.60;;;;;;5072586;28;20411;-82
2023/06/14 09:12:15;;;;;;;2.17;1.00;;;23.10;67.10;;;;;;5075707;28;20465;-84
2023/06/14 09:14:42;;;;;;;2.88;1.10;;;23.10;66.30;;;;;;5072037;28;20446;-81
2023/06/14 09:17:08;;;;;;;3.25;1.08;;;23.20;65.90;;;;;;5071300;28;20043;-81
2023/06/14 09:19:34;;;;;;;1.83;1.00;;;23.30;65.70;;;;;;5074718;28;20028;-82
2023/06/14 09:22:00;;;;;;;1.52;0.90;;;23.40;65.40;;;;;;5055639;28;20029;-85
2023/06/14 09:24:26;;;;;;;1.38;0.90;;;23.50;65.50;;;;;;5073965;28;20043;-85
2023/06/14 09:26:51;;;;;;;1.20;0.90;;;23.60;65.60;;;;;;5073423;28;20036;-83
2023/06/14 09:29:18;;;;;;;1.38;0.82;;;23.80;65.50;;;;;;5074314;28;20020;-83
2023/06/14 09:31:46;;;;;;;2.50;1.10;;;23.90;65.50;;;;;;5056322;28;20129;-83
2023/06/14 09:34:11;;;;;;;1.98;0.93;;;24.60;65.30;;;;;;5074577;28;20052;-85
2023/06/14 09:36:40;;;;;;;2.38;1.00;;;25.70;64.30;;;;;;5068453;28;20501;-81
2023/06/14 09:39:07;;;;;;;1.52;0.93;;;26.90;63.40;;;;;;5055936;28;20028;-83
2023/06/14 09:41:34;;;;;;;2.60;0.73;;;27.80;62.00;;;;;;5063184;28;20031;-84
2023/06/14 09:44:02;;;;;;;1.77;0.80;;;28.60;61.60;;;;;;5072448;28;20028;-82
2023/06/14 09:46:29;;;;;;;0.98;0.80;;;29.40;61.10;;;;;;5072204;28;20036;-82
2023/06/14 09:48:55;;;;;;;1.55;0.90;;;29.90;60.30;;;;;;5056232;28;20059;-82
2023/06/14 09:51:22;;;;;;;1.73;0.90;;;30.30;59.90;;;;;;5069387;28;20034;-81
2023/06/14 09:53:50;;;;;;;1.05;0.60;;;30.80;59.90;;;;;;5055961;28;20260;-81
2023/06/14 09:56:31;;;;;;;1.27;0.77;;;31.20;59.60;;;;;;5056626;28;21551;-83
2023/06/14 09:58:58;;;;;;;1.30;0.70;;;31.60;58.70;;;;;;5054001;28;20701;-80
2023/06/14 10:01:30;;;;;;;1.45;0.90;;;31.70;58.60;;;;;;5071384;28;20444;-84
2023/06/14 10:04:09;;;;;;;1.08;0.77;;;32.00;58.30;;;;;;5059524;28;20046;-83
2023/06/14 10:06:41;;;;;;;3.45;0.90;;;32.20;58.00;;;;;;5070654;28;20457;-85
2023/06/14 10:09:09;;;;;;;3.53;1.02;;;32.40;57.60;;;;;;5071385;28;20028;-82
2023/06/14 10:11:36;;;;;;;1.20;0.70;;;32.50;56.70;;;;;;5063203;28;20107;-84
2023/06/14 10:14:06;;;;;;;1.60;0.70;;;32.60;56.20;;;;;;5071770;28;20541;-83
2023/06/14 10:16:37;;;;;;;1.17;0.70;;;32.60;56.00;;;;;;5073609;28;20029;-81
2023/06/14 10:19:25;;;;;;;1.83;0.90;;;32.90;55.70;;;;;;5072707;28;20035;-83
2023/06/14 10:22:12;;;;;;;1.73;0.85;;;33.00;55.50;;;;;;5071399;28;20029;-82
2023/06/14 10:24:45;;;;;;;1.05;0.90;;;33.10;54.40;;;;;;5071776;28;20043;-83
2023/06/14 10:27:14;;;;;;;1.42;0.75;;;33.10;54.60;;;;;;5075425;28;20048;-82
2023/06/14 10:29:57;;;;;;;1.23;0.80;;;33.20;54.50;;;;;;5071711;28;20674;-83
2023/06/14 10:32:24;;;;;;;1.00;0.73;;;33.30;54.30;;;;;;5070857;28;20371;-83
2023/06/14 10:35:01;;;;;;;0.88;0.70;;;33.40;54.20;;;;;;5068591;28;20482;-85
2023/06/14 10:37:27;;;;;;;1.40;0.80;;;33.60;54.10;;;;;;5054422;28;20450;-84
2023/06/14 10:39:55;;;;;;;1.73;0.90;;;33.60;54.00;;;;;;5069034;28;20021;-82
2023/06/14 10:42:22;;;;;;;3.95;0.90;;;34.00;53.90;;;;;;5070679;28;20035;-83
2023/06/14 10:44:52;;;;;;;2.13;0.70;;;34.10;53.20;;;;;;5070822;28;20074;-81
2023/06/14 10:47:24;;;;;;;2.45;0.80;;;34.20;53.40;;;;;;5070614;28;20107;-83
2023/06/14 10:49:55;;;;;;;1.27;0.90;;;34.20;53.10;;;;;;5067576;28;20459;-82
2023/06/14 10:52:27;;;;;;;1.23;0.80;;;34.10;52.80;;;;;;5070176;28;20032;-81
2023/06/14 10:55:04;;;;;;;1.42;0.80;;;34.00;52.90;;;;;;5069040;28;20028;-82
2023/06/14 10:57:33;;;;;;;1.70;0.95;;;34.10;52.70;;;;;;5071380;28;20035;-82
2023/06/14 11:00:15;;;;;;;0.98;0.70;;;34.00;52.30;;;;;;5070264;28;20481;-81
2023/06/14 11:03:09;;;;;;;2.35;0.80;;;34.10;52.40;;;;;;5060603;28;20028;-81
2023/06/14 11:05:52;;;;;;;1.02;0.70;;;34.30;52.20;;;;;;5071127;28;20024;-83
2023/06/14 11:08:40;;;;;;;2.13;0.88;;;34.40;52.00;;;;;;5071918;28;20021;-84
2023/06/14 11:11:07;;;;;;;0.85;0.70;;;34.50;52.00;;;;;;5055180;28;20033;-82
2023/06/14 11:13:34;;;;;;;1.75;0.90;;;34.60;51.90;;;;;;5074924;28;20042;-81
2023/06/14 11:16:00;;;;;;;1.10;0.70;;;34.70;51.90;;;;;;5062855;28;20017;-83
2023/06/14 11:18:27;;;;;;;0.93;0.63;;;34.80;52.00;;;;;;5059024;28;20319;-81
2023/06/14 11:20:53;;;;;;;2.10;0.90;;;34.90;51.80;;;;;;5076360;28;20020;-83
2023/06/14 11:23:18;;;;;;;2.15;0.90;;;35.00;51.70;;;;;;5064122;28;20119;-81
2023/06/14 11:25:50;;;;;;;1.85;1.10;;;34.90;51.30;;;;;;5074972;28;20036;-81
2023/06/14 11:28:15;;;;;;;1.52;0.80;;;34.90;51.30;;;;;;5077014;28;20047;-83
2023/06/14 11:30:41;;;;;;;1.17;0.75;;;34.90;51.90;;;;;;5075589;28;20032;-84
2023/06/14 11:33:11;;;;;;;1.17;0.70;;;35.10;51.70;;;;;;5059756;28;20035;-81
2023/06/14 11:35:36;;;;;;;1.30;0.77;;;35.20;51.20;;;;;;5064967;28;20042;-81
2023/06/14 11:38:02;;;;;;;1.23;1.00;;;35.10;51.10;;;;;;5075498;28;20033;-83
2023/06/14 11:40:28;;;;;;;1.48;1.00;;;35.00;51.10;;;;;;5075117;28;20031;-83
2023/06/14 11:43:01;;;;;;;1.08;0.80;;;35.00;50.90;;;;;;5076300;28;20111;-84
2023/06/14 11:45:27;;;;;;;1.13;0.90;;;34.90;50.90;;;;;;5074509;28;20358;-81
2023/06/14 11:47:58;;;;;;;1.27;0.70;;;34.90;50.90;;;;;;5063586;28;20504;-81
2023/06/14 11:50:24;;;;;;;1.40;0.90;;;35.20;50.60;;;;;;5058810;28;20469;-82
2023/06/14 11:52:55;;;;;;;3.40;0.77;;;35.10;50.30;;;;;;5073436;28;20039;-83
2023/06/14 11:55:22;;;;;;;1.25;0.77;;;35.20;50.60;;;;;;5061415;28;20024;-83
2023/06/14 11:57:48;;;;;;;2.15;0.80;;;35.40;50.40;;;;;;5075696;28;20093;-82
2023/06/14 12:00:15;;;;;;;2.13;0.65;;;35.40;50.60;;;;;;5074913;28;20404;-84
2023/06/14 12:02:41;;;;;;;2.00;0.90;;;35.30;50.60;;;;;;5074015;28;20465;-84
2023/06/14 12:05:09;;;;;;;2.25;0.90;;;35.30;50.20;;;;;;5063116;28;20039;-82
2023/06/14 12:07:36;;;;;;;1.65;0.88;;;35.30;50.20;;;;;;5054394;28;20178;-85
2023/06/14 12:10:02;;;;;;;1.15;0.80;;;35.30;50.30;;;;;;5057577;28;20028;-82
2023/06/14 12:12:29;;;;;;;1.85;0.70;;;35.40;50.30;;;;;;5071406;28;20028;-83
2023/06/14 12:14:56;;;;;;;3.80;0.88;;;35.50;49.90;;;;;;5063418;28;20028;-83
2023/06/14 12:17:22;;;;;;;1.50;0.88;;;35.50;50.00;;;;;;5071636;28;20027;-83
2023/06/14 12:19:49;;;;;;;2.65;0.60;;;35.70;50.00;;;;;;5071568;28;20601;-84
2023/06/14 12:22:16;;;;;;;2.22;0.80;;;35.80;50.10;;;;;;5059388;28;20031;-83
2023/06/14 12:24:45;;;;;;;2.35;0.75;;;35.90;49.90;;;;;;5061363;28;20025;-82
2023/06/14 12:27:15;;;;;;;1.40;0.70;;;35.90;49.70;;;;;;5060870;28;20059;-83
2023/06/14 12:29:44;;;;;;;0.80;0.63;;;35.90;49.60;;;;;;5056432;28;20450;-83
2023/06/14 12:32:10;;;;;;;2.22;0.90;;;35.90;50.20;;;;;;5071912;28;20028;-84
2023/06/14 12:34:35;;;;;;;1.90;0.82;;;35.80;49.50;;;;;;5055507;28;20501;-81
2023/06/14 12:37:03;;;;;;;2.58;0.80;;;35.80;49.60;;;;;;5071828;28;20051;-83
2023/06/14 12:39:29;;;;;;;1.52;0.93;;;35.70;49.70;;;;;;5071638;28;20031;-83
2023/06/14 12:41:55;;;;;;;1.80;0.63;;;35.50;49.70;;;;;;5073016;28;20020;-83
2023/06/14 12:44:21;;;;;;;4.10;0.93;;;35.50;50.00;;;;;;5066270;28;20028;-84
2023/06/14 12:46:46;;;;;;;1.98;0.80;;;35.60;50.10;;;;;;5057437;28;20036;-82
2023/06/14 12:49:12;;;;;;;1.15;0.70;;;35.60;50.10;;;;;;5072774;28;20024;-84